Time;durP1;ratioP1;P1;durP2;ratioP2;P2;SDS_P1;SDS_P2;PMS_P1;PMS_P2;Temp;Humidity;BMP_temperature;BMP_pressure;BME280_temperature;BME280_humidity;BME280_pressure;Samples;Min_cycle;Max_cycle;Signal;HPM_P1;HPM_P2
2021/12/16 00:09:56;;;;;;;3.67;2.50;;;;;;;15.23;62.79;102819.84;21144502;28;20050;-71
2021/12/16 00:28:59;;;;;;;3.50;2.40;;;;;;;14.96;62.84;102776.41;21143703;28;20092;-71
2021/12/16 00:40:43;;;;;;;3.83;2.15;;;;;;;14.96;63.48;102781.75;21157617;28;20105;-71
2021/12/16 01:01:06;;;;;;;4.47;2.30;;;;;;;14.82;63.32;102779.72;21156649;28;20047;-71
2021/12/16 01:53:00;;;;;;;3.47;2.65;;;;;;;14.70;63.17;102841.91;21164743;28;20063;-71
2021/12/16 02:03:02;;;;;;;5.78;3.60;;;;;;;14.82;63.37;102881.59;21152602;28;20047;-71
2021/12/16 02:54:50;;;;;;;4.70;2.70;;;;;;;14.34;63.51;102830.00;21060640;28;20116;-72
2021/12/16 03:04:53;;;;;;;3.90;2.60;;;;;;;14.71;63.63;102894.63;21148413;28;20145;-72
2021/12/16 03:15:04;;;;;;;3.97;2.50;;;;;;;14.52;63.15;102873.06;21129815;28;20079;-72
2021/12/16 03:25:23;;;;;;;5.45;3.10;;;;;;;15.16;63.49;102975.81;21145438;28;20128;-71
2021/12/16 03:56:18;;;;;;;6.20;4.13;;;;;;;15.92;62.79;102988.56;21118652;27;20388;-71
2021/12/16 04:06:38;;;;;;;5.82;3.92;;;;;;;16.31;61.87;102982.19;21211901;27;20053;-71
2021/12/16 04:16:52;;;;;;;4.68;3.08;;;;;;;16.52;61.19;102992.84;21152114;28;20493;-71
2021/12/16 04:27:05;;;;;;;5.72;3.63;;;;;;;16.60;60.64;103033.66;21124007;27;20540;-71
2021/12/16 04:37:10;;;;;;;4.83;3.47;;;;;;;16.50;60.61;102992.06;21224887;27;20050;-71
2021/12/16 04:47:13;;;;;;;6.70;4.22;;;;;;;16.71;60.33;103005.38;21206961;27;20300;-71
2021/12/16 04:57:16;;;;;;;6.53;3.70;;;;;;;16.81;59.95;103039.78;21223762;27;20120;-70
2021/12/16 05:07:23;;;;;;;6.18;4.30;;;;;;;16.36;60.13;102953.28;21223323;27;20035;-71
2021/12/16 05:17:49;;;;;;;5.28;3.78;;;;;;;16.99;59.98;103057.81;21240960;28;20055;-69
2021/12/16 05:27:52;;;;;;;4.57;3.55;;;;;;;16.44;60.04;102969.03;21223918;28;20168;-70
2021/12/16 05:37:55;;;;;;;7.28;3.80;;;;;;;17.09;60.03;103086.88;21205412;28;20043;-70
2021/12/16 05:48:00;;;;;;;4.88;3.38;;;;;;;16.38;59.86;102988.16;21221600;28;20043;-71
2021/12/16 05:58:05;;;;;;;5.05;3.88;;;;;;;16.55;59.85;103029.44;21226582;27;20082;-72
2021/12/16 06:08:08;;;;;;;5.40;4.17;;;;;;;16.21;59.88;102959.41;21236809;27;20051;-72
2021/12/16 06:28:34;;;;;;;7.05;4.22;;;;;;;17.11;59.84;103132.53;21238044;27;20047;-68
2021/12/16 06:38:39;;;;;;;6.22;3.72;;;;;;;17.10;59.88;103141.56;21252541;27;20051;-69
2021/12/16 06:48:58;;;;;;;7.20;4.20;;;;;;;17.18;59.95;103141.19;21233667;27;20050;-69
2021/12/16 06:59:10;;;;;;;4.75;3.78;;;;;;;17.03;60.22;103119.50;21251357;27;20303;-72
2021/12/16 07:09:15;;;;;;;7.45;3.70;;;;;;;17.20;60.76;103148.22;21249605;27;20043;-71
2021/12/16 07:19:18;;;;;;;6.18;3.75;;;;;;;16.83;61.47;103096.22;21230887;27;20040;-70
2021/12/16 07:29:20;;;;;;;7.03;3.50;;;;;;;17.18;62.76;103147.44;21249106;27;20042;-72
2021/12/16 07:39:28;;;;;;;8.95;4.28;;;;;;;17.10;62.88;103141.56;21248289;27;20051;-75
2021/12/16 07:49:34;;;;;;;7.85;4.68;;;;;;;16.77;62.68;103083.94;21212571;27;20051;-71
2021/12/16 07:59:37;;;;;;;6.30;4.03;;;;;;;17.33;62.71;103228.41;21246079;27;20039;-74
2021/12/16 08:09:40;;;;;;;6.93;4.60;;;;;;;17.30;62.38;103234.81;21244964;27;20112;-71
2021/12/16 08:19:42;;;;;;;5.85;4.53;;;;;;;16.92;61.45;103186.38;21243326;27;20043;-71
2021/12/16 08:29:44;;;;;;;8.60;4.20;;;;;;;17.05;61.48;103224.34;21225518;27;20035;-71
2021/12/16 09:02:08;;;;;;;7.00;5.28;;;;;;;16.78;61.42;103265.03;20122392;24;20412;-76
2021/12/16 11:11:43;;;;;;;5.72;3.47;;;;;;;17.00;61.41;103379.78;19598547;30;20068;-76
2021/12/16 11:21:44;;;;;;;6.43;3.75;;;;;;;17.10;61.31;103367.66;19595989;30;20068;-76
2021/12/16 11:31:48;;;;;;;4.68;3.40;;;;;;;17.17;61.15;103374.50;19595577;30;20401;-76
2021/12/16 11:41:56;;;;;;;6.25;3.17;;;;;;;16.54;61.01;103273.28;19594767;30;20420;-76
2021/12/16 11:52:21;;;;;;;5.43;3.25;;;;;;;16.52;61.05;103275.19;19592795;30;20073;-76
2021/12/16 12:02:33;;;;;;;6.47;4.33;;;;;;;17.05;61.01;103351.72;19593190;30;20067;-76
2021/12/16 12:12:40;;;;;;;4.57;3.28;;;;;;;17.23;61.02;103385.00;19592664;30;20060;-77
2021/12/16 12:22:42;;;;;;;6.78;3.60;;;;;;;16.80;60.93;103307.06;19576503;30;20111;-76
2021/12/16 12:32:46;;;;;;;5.95;3.30;;;;;;;16.52;60.86;103267.97;19591741;30;20133;-76
2021/12/16 12:42:53;;;;;;;6.03;3.45;;;;;;;16.70;60.83;103281.53;19561154;30;20061;-76
2021/12/16 12:52:59;;;;;;;5.68;3.42;;;;;;;17.29;60.96;103394.59;19591195;30;20052;-76
2021/12/16 13:03:11;;;;;;;5.32;3.58;;;;;;;17.22;61.01;103375.16;19560122;30;20075;-76
2021/12/16 13:33:43;;;;;;;4.38;3.13;;;;;;;17.00;61.03;103317.88;19573254;30;20122;-76
2021/12/16 13:44:04;;;;;;;5.13;3.30;;;;;;;17.13;61.09;103358.56;19559125;30;20067;-76
2021/12/16 14:04:57;;;;;;;4.43;3.42;;;;;;;17.30;61.01;103374.81;19588051;30;20060;-76
2021/12/16 14:36:09;;;;;;;6.47;4.20;;;;;;;17.02;60.83;103340.22;19599524;30;20105;-76
2021/12/16 14:46:09;;;;;;;6.53;3.90;;;;;;;16.63;60.81;103294.38;19598566;30;20048;-76
2021/12/16 14:56:28;;;;;;;6.20;4.20;;;;;;;17.27;60.67;103412.63;19582931;30;20049;-76
2021/12/16 15:06:39;;;;;;;5.32;3.85;;;;;;;16.74;60.73;103334.25;19597204;30;20052;-76
2021/12/16 15:16:58;;;;;;;4.55;3.38;;;;;;;17.34;60.57;103434.78;19596318;30;20130;-76
2021/12/16 15:47:40;;;;;;;4.72;3.30;;;;;;;17.16;60.78;103433.81;19579970;30;20071;-78
2021/12/16 15:57:42;;;;;;;4.00;3.22;;;;;;;17.41;60.83;103490.09;19563175;30;20567;-78
2021/12/16 16:07:44;;;;;;;3.80;2.90;;;;;;;17.42;60.54;103502.63;19593231;30;20944;-78
2021/12/16 16:18:11;;;;;;;3.67;2.90;;;;;;;16.98;60.43;103435.50;19592214;30;20132;-78
2021/12/16 16:28:14;;;;;;;3.28;2.90;;;;;;;17.26;60.36;103502.44;19578609;30;20068;-77
2021/12/16 16:38:25;;;;;;;4.43;3.50;;;;;;;17.44;60.50;103546.50;19575330;30;20140;-78
2021/12/16 16:58:42;;;;;;;3.45;2.92;;;;;;;17.44;60.31;103532.16;19590116;30;20072;-76
2021/12/16 17:08:44;;;;;;;5.15;3.47;;;;;;;17.44;60.34;103533.03;19589626;30;20106;-78
2021/12/16 17:18:58;;;;;;;4.30;3.38;;;;;;;17.37;60.33;103520.81;19589403;30;20064;-78
2021/12/16 17:29:04;;;;;;;3.85;2.95;;;;;;;17.45;60.24;103537.47;19589194;30;20068;-77
2021/12/16 17:39:08;;;;;;;3.42;3.00;;;;;;;16.84;60.12;103434.25;19587604;30;20099;-78
2021/12/16 17:49:10;;;;;;;4.00;2.85;;;;;;;17.45;60.22;103550.06;19588631;30;20064;-78
2021/12/16 17:59:12;;;;;;;3.28;2.72;;;;;;;17.41;60.37;103549.34;19601471;30;20826;-78
2021/12/16 18:09:16;;;;;;;3.47;2.88;;;;;;;17.49;60.31;103584.03;19601065;30;20118;-78
2021/12/16 18:19:30;;;;;;;3.60;3.07;;;;;;;17.13;60.10;103522.75;19600825;30;20565;-78
2021/12/16 18:29:37;;;;;;;3.78;2.97;;;;;;;17.50;60.14;103575.84;19599931;30;20072;-78
2021/12/16 18:39:47;;;;;;;3.88;3.10;;;;;;;16.88;60.27;103468.16;19599226;30;20052;-76
2021/12/16 18:49:52;;;;;;;3.70;3.03;;;;;;;16.92;60.08;103477.84;19598647;30;20554;-76
2021/12/16 18:59:55;;;;;;;4.13;3.38;;;;;;;17.46;60.06;103574.25;19597863;30;20049;-76
2021/12/16 19:09:58;;;;;;;3.70;2.85;;;;;;;17.40;60.26;103583.47;19596070;30;20065;-76
2021/12/16 19:20:02;;;;;;;2.90;2.42;;;;;;;17.35;60.49;103572.03;19580970;30;20062;-76
2021/12/16 19:30:06;;;;;;;3.72;2.80;;;;;;;17.25;60.70;103598.50;19595801;30;20060;-76
2021/12/16 19:40:13;;;;;;;2.97;2.70;;;;;;;17.28;60.35;103573.22;19594891;30;20060;-76
2021/12/16 19:50:18;;;;;;;3.95;3.05;;;;;;;16.73;60.84;103479.56;19578699;30;20495;-76
2021/12/16 20:00:27;;;;;;;4.00;3.17;;;;;;;17.35;60.65;103588.16;19593529;30;20056;-76
2021/12/16 20:10:34;;;;;;;3.92;2.58;;;;;;;16.68;60.70;103477.94;19592687;30;20068;-76
2021/12/16 20:20:41;;;;;;;3.95;3.10;;;;;;;16.68;60.84;103485.16;19591355;30;20067;-75
2021/12/16 20:30:49;;;;;;;3.60;3.10;;;;;;;17.35;61.01;103614.25;19591696;30;20068;-76
2021/12/16 20:41:00;;;;;;;3.88;2.95;;;;;;;16.92;60.84;103539.75;19591171;30;20060;-76
2021/12/16 20:51:06;;;;;;;3.28;2.83;;;;;;;17.18;61.07;103596.97;19560567;30;20061;-76
2021/12/16 21:01:14;;;;;;;3.55;2.58;;;;;;;16.88;61.20;103577.59;19590305;30;20076;-76
2021/12/16 21:11:17;;;;;;;3.70;2.97;;;;;;;17.05;61.23;103645.09;19589505;30;20394;-76
2021/12/16 21:21:19;;;;;;;3.88;3.28;;;;;;;16.81;61.49;103598.50;19573601;30;20124;-76
2021/12/16 21:31:21;;;;;;;4.03;3.25;;;;;;;15.75;61.59;103440.50;19599012;30;20083;-76
2021/12/16 21:41:24;;;;;;;3.08;2.58;;;;;;;16.11;61.74;103525.09;19601812;30;20063;-76
2021/12/16 21:51:27;;;;;;;3.55;2.80;;;;;;;16.64;62.07;103613.50;19586958;30;20073;-76
2021/12/16 22:01:29;;;;;;;3.95;3.35;;;;;;;16.11;61.83;103523.28;19586578;30;20048;-76
2021/12/16 22:11:31;;;;;;;3.97;3.10;;;;;;;15.72;62.22;103473.72;19601320;30;20067;-76
2021/12/16 22:21:38;;;;;;;4.00;3.05;;;;;;;15.93;62.39;103524.91;19600485;30;20507;-76
2021/12/16 22:31:43;;;;;;;3.58;3.15;;;;;;;15.84;62.51;103533.25;19599898;30;20128;-76
2021/12/16 22:41:45;;;;;;;4.10;3.17;;;;;;;15.67;62.68;103521.34;19597086;30;20064;-75
2021/12/16 22:51:48;;;;;;;3.17;2.60;;;;;;;16.27;62.64;103636.47;19598484;30;20053;-75
2021/12/16 23:01:53;;;;;;;4.85;3.20;;;;;;;16.10;62.53;103618.28;19596683;30;20071;-75
2021/12/16 23:11:55;;;;;;;2.63;2.43;;;;;;;15.05;63.04;103441.25;19596861;30;20411;-76
2021/12/16 23:32:17;;;;;;;3.55;2.78;;;;;;;15.43;63.01;103547.28;19595660;30;20076;-75
